Dinnington, United Kingdom
Current Conditions -  °F | °C
As of 12:20 PM on Monday 20 Oct 2014 (Local Time) from EGCN Reporting Station
Rain Showers Rain Showers  
Wind Chill: 13°   Ceiling: 4500
Heat Index: 13°   Visibility: 6mi
Dew Point: 11°   Wind: 12mph
Humidity: 88%   Direction: 200°SSW
Pressure: 29.91"   Gusts: NA
Location:  53.37°N, 1.2°W
Report Text: EGCN 201120Z 20010KT 9999 -SHRA SCT025 BKN045 13/11 Q1013
Loading
Personal Weather Stations






























Interactive Weather Map
Tropical Storm Tracking
New forecast layout! Learn more

10-Day Weather Forecast

Advertisements
Track Severe Weather on mobile